Friday, May 27, 2016
20:09 UTC
  |  Log In   |  Register Free
Airport Search:

Mount Sterling-Montgomery County Airport
(KIOB)

Mount Sterling-Montgomery County Airport Diagram
No Airport Diagram Available

FAA data valid effective Mar 31 2016 - May 26 2016 (unless otherwise noted).

 
 
 
 
 
 
 
 
 
 
 
 
 
 
Current Aviation Weather for KIOB

Weather Summary


The most recent METAR observation for IOB was updated at: 12:55 UTC
METAR for KIOB is not available. Closest METAR is for KSYM
KIOB  (most recent observation was updatred at 27:19 UTC)
271955Z AUTO 28006KT 10SM SCT050 SCT065 28/18 A3005 RMK AO2

KSYM  (20.8 nm SW)   (most recent observation was updated at 27:19 UTC)
271950Z AUTO 24006KT 10SM CLR 30/18 A3006 RMK AO2

KLEX  (29.6 nm NE)   (most recent observation was updated at 27:19 UTC)
271954Z 18008KT 10SM CLR 29/18 A3003 RMK AO2 SLP159 T02890183

TAF for KIOB is not available.
KSYM  (20.8 nm SW)   (most recent observation was updatred at 27:17 UTC)
271721Z 2718/2818 23005KT P6SM SCT100 FM280200 00000KT P6SM VCTS BKN040CB FM280400 00000KT P6SM VCSH BKN040 FM280700 VRB03KT 5SM BR BKN040 FM281400 21004KT P6SM SCT050


KLEX  (29.6 nm NE)   (most recent observation was updatred at 27:17 UTC)
271731Z 2718/2818 21011KT P6SM FEW050 SCT250 FM280000 16005KT P6SM SCT250 FM281400 20010KT P6SM BKN250


GlobalAir.com is loading additional information.
 Current Weather at IOB
84.0 F° (29.0 C°)

West winds at 8.1 mph
Pressure:
30.06 in
Humidity:
51%
Wind:
West at 8.1 mph
Dew Point:
64.4 F° (18.0 C°)
Visibility:
10.00 mi
IOB NOAA Radar




Find All Airport Services Find A Hotel Find A Rental Car Find A Golf Course Find A Restaurant $100 Hamburger



Airport Weather Forecast for KIOB

Translated METAR for KIOB (1955 UTC)
METAR:
KIOB 271955Z AUTO 28006KT 10SM SCT050 SCT065 28/18 A3005 RMK AO2
Conditions at:
KIOB (Mount Sterling-Montgomery County, KY) observed 1955 UTC 27 May 2016
Temperature:
28°C (82.4°F)
Dewpoint:
18°C (64.4°F) [RH = 54.6]
Pressure:
30.05 inches Hg (1017.6 mb)
Winds:
from the W (280 degrees) at 6.9 mph (6 knots: 3.1 m/s)
Visibility:
10 mile(s)
Ceiling:
at least 12,000 feet AGL
Clouds:
Scattered Clouds at 5,000 feet AGL
Scattered Clouds at 6,500 feet AGL
Remarks:
site is un-manned

Translated TAF for KSYM (Morehead-Rowan County Clyde A Thomas Rgnl, KY) (1721 UTC)
TAF text:
KSYM 271721Z 2718/2818 23005KT P6SM SCT100
Forecast period:
Friday May 27 2016 18:00 UTC - Saturday May 28 2016 18:00 UTC
Forecast type:
FROM: standard forecast or significant change
Winds:
from the SW (230 degrees) at 5.8 mph (5 knots: 2.6 m/s)
Visibility:
6 or more mile(s) (9.7+ km)
Ceiling:
at least 12,000 feet AGL
Clouds:
Scattered Clouds at 10,000 feet AGL
Weather:
no significant weather observed at this time
TAF text:
FM280200 00000KT P6SM VCTS BKN040CB
Forecast period:
Saturday May 28 2016 02:00 UTC - Saturday May 28 2016 04:00 UTC
Forecast type:
FROM: standard forecast or significant change
Winds:
from the N (000 degrees) at 0 mph (0 knots: 0 m/s)
Visibility:
6 or more mile(s) (9.7+ km)
Ceiling:
Clouds:
Weather:
Moderate In Vicinity Thunderstorm
TAF text:
FM280400 00000KT P6SM VCSH BKN040
Forecast period:
Saturday May 28 2016 04:00 UTC - Saturday May 28 2016 07:00 UTC
Forecast type:
FROM: standard forecast or significant change
Winds:
from the N (000 degrees) at 0 mph (0 knots: 0 m/s)
Visibility:
6 or more mile(s) (9.7+ km)
Ceiling:
4,000 feet AGL
Clouds:
Broken Cloud Cover at 4,000 feet AGL
Weather:
Moderate In Vicinity Shower(s)
TAF text:
FM280700 VRB03KT 5SM BR BKN040
Forecast period:
Saturday May 28 2016 07:00 UTC - Saturday May 28 2016 14:00 UTC
Forecast type:
FROM: standard forecast or significant change
Winds:
variable wind direction at 3.5 mph (3 knots: 1.5 m/s)
Visibility:
5 mile(s) (8 km)
Ceiling:
4,000 feet AGL
Clouds:
Broken Cloud Cover at 4,000 feet AGL
Weather:
Moderate Mist
TAF text:
FM281400 21004KT P6SM SCT050
Forecast period:
Saturday May 28 2016 14:00 UTC - Saturday May 28 2016 18:00 UTC
Forecast type:
FROM: standard forecast or significant change
Winds:
from the SSW (210 degrees) at 4.6 mph (4 knots: 2.1 m/s)
Visibility:
6 or more mile(s) (9.7+ km)
Ceiling:
at least 12,000 feet AGL
Clouds:
Scattered Clouds at 5,000 feet AGL
Weather:
no significant weather observed at this time
FBO's on the Field
FBO Company Facility Photos Services Transportation Aviation Fuel Prices: Prices include tax
Catering Weather Repair Courtesy Rental Type 100LL JetA JetA+ MOGAS 8087
 
Kentucky Airmotive Inc

This FBO has not yet been rated
FS:Shell
Last Updated: Apr-24
Login to update fuel prices
SS:
Contact Kentucky Airmotive IncMore FBO Information
 
Add another FBO Facility Photos Catering Weather Repair Courtesy Rental Type 100LL JetA JetA+ MOGAS 8087
Services Transportation Aviation Fuel Prices: Prices include tax


model-print
model-print
model-print
model-print